Time;durP1;ratioP1;P1;durP2;ratioP2;P2;SDS_P1;SDS_P2;PMS_P1;PMS_P2;Temp;Humidity;BMP_temperature;BMP_pressure;BME280_temperature;BME280_humidity;BME280_pressure;Samples;Min_cycle;Max_cycle;Signal;HPM_P1;HPM_P2
2022/09/20 00:00:30;;;;;;;0.70;0.70;;;9.50;99.90;;;;;;5082955;28;20847;-68
2022/09/20 00:02:57;;;;;;;0.97;0.93;;;9.50;99.90;;;;;;5082422;28;20203;-68
2022/09/20 00:05:24;;;;;;;0.93;0.80;;;9.50;99.90;;;;;;5089641;28;20674;-66
2022/09/20 00:07:51;;;;;;;0.77;0.77;;;9.50;99.90;;;;;;5080734;28;20223;-66
2022/09/20 00:10:21;;;;;;;1.30;1.10;;;9.50;99.90;;;;;;5084611;28;20203;-68
2022/09/20 00:12:48;;;;;;;3.87;1.10;;;9.50;99.90;;;;;;5059688;28;20212;-68
2022/09/20 00:15:15;;;;;;;0.97;0.97;;;9.40;99.90;;;;;;5073802;28;20199;-67
2022/09/20 00:17:41;;;;;;;0.90;0.90;;;9.40;99.90;;;;;;5079614;28;20305;-67
2022/09/20 00:20:09;;;;;;;1.50;0.80;;;9.40;99.90;;;;;;5077505;28;20210;-68
2022/09/20 00:22:36;;;;;;;0.70;0.70;;;9.40;99.90;;;;;;5083926;28;20281;-68
2022/09/20 00:25:02;;;;;;;1.10;1.00;;;9.50;99.90;;;;;;5083092;28;20209;-67
2022/09/20 00:27:31;;;;;;;1.03;0.97;;;9.50;99.90;;;;;;5074498;28;20763;-66
2022/09/20 00:29:58;;;;;;;0.90;0.90;;;9.60;99.90;;;;;;5070382;28;20194;-66
2022/09/20 00:32:24;;;;;;;1.10;0.90;;;9.60;99.90;;;;;;5083882;28;20306;-67
2022/09/20 00:35:09;;;;;;;1.00;0.93;;;9.60;99.90;;;;;;5084184;28;20659;-67
2022/09/20 00:37:37;;;;;;;0.70;0.70;;;9.60;99.90;;;;;;5083428;28;20263;-66
2022/09/20 00:40:06;;;;;;;0.80;0.80;;;9.60;99.90;;;;;;5082794;28;20202;-66
2022/09/20 00:42:34;;;;;;;0.90;0.90;;;9.70;99.90;;;;;;5083261;28;20285;-68
2022/09/20 00:45:03;;;;;;;1.10;1.10;;;9.70;99.90;;;;;;5083402;28;20202;-66
2022/09/20 00:47:36;;;;;;;1.10;1.00;;;9.70;99.90;;;;;;5075547;28;20226;-67
2022/09/20 00:50:14;;;;;;;1.20;1.10;;;9.70;99.90;;;;;;5082158;28;20206;-68
2022/09/20 00:52:45;;;;;;;0.90;0.83;;;9.70;99.90;;;;;;5056958;28;20200;-67
2022/09/20 00:55:12;;;;;;;0.83;0.83;;;9.70;99.90;;;;;;5058786;28;20196;-68
2022/09/20 00:57:42;;;;;;;0.90;0.90;;;9.70;99.90;;;;;;5058223;28;20224;-69
2022/09/20 01:00:11;;;;;;;1.10;1.00;;;9.70;99.90;;;;;;5061098;28;20204;-67
2022/09/20 01:02:42;;;;;;;1.07;1.00;;;9.70;99.90;;;;;;5063487;28;20207;-65
2022/09/20 01:05:11;;;;;;;1.10;1.00;;;9.60;99.90;;;;;;5062482;28;20669;-66
2022/09/20 01:07:38;;;;;;;1.10;0.80;;;9.70;99.90;;;;;;5066858;28;20245;-65
2022/09/20 01:10:06;;;;;;;1.03;0.80;;;9.60;99.90;;;;;;5079870;28;20203;-66
2022/09/20 01:12:34;;;;;;;0.70;0.70;;;9.60;99.90;;;;;;5071382;28;20657;-68
2022/09/20 01:15:05;;;;;;;1.90;1.10;;;9.50;99.90;;;;;;5076036;28;20204;-66
2022/09/20 01:17:35;;;;;;;0.90;0.90;;;9.50;99.90;;;;;;5079349;28;20245;-67
2022/09/20 01:20:16;;;;;;;1.77;0.93;;;9.40;99.90;;;;;;5063780;28;20572;-68
2022/09/20 01:23:12;;;;;;;0.80;0.80;;;9.40;99.90;;;;;;5089745;28;20198;-66
2022/09/20 01:26:00;;;;;;;0.93;0.90;;;9.30;99.90;;;;;;5077755;28;20205;-68
2022/09/20 01:28:29;;;;;;;0.93;0.93;;;9.30;99.90;;;;;;5084497;28;20699;-67
2022/09/20 01:31:03;;;;;;;0.83;0.83;;;9.20;99.90;;;;;;5086985;28;20202;-64
2022/09/20 01:33:40;;;;;;;0.73;0.73;;;9.20;99.90;;;;;;5081816;28;20213;-67
2022/09/20 01:36:11;;;;;;;0.77;0.77;;;9.20;99.90;;;;;;5088566;28;20572;-68
2022/09/20 01:38:44;;;;;;;1.17;1.10;;;9.20;99.90;;;;;;5080196;28;20214;-66
2022/09/20 01:41:16;;;;;;;0.97;0.90;;;9.20;99.90;;;;;;5086938;28;20206;-66
2022/09/20 01:43:51;;;;;;;0.80;0.80;;;9.20;99.90;;;;;;5078849;28;20291;-68
2022/09/20 01:46:29;;;;;;;0.70;0.70;;;9.10;99.90;;;;;;5090836;28;20202;-68
2022/09/20 01:49:05;;;;;;;0.90;0.90;;;9.10;99.90;;;;;;5085669;28;20261;-67
2022/09/20 01:52:05;;;;;;;0.90;0.90;;;9.10;99.90;;;;;;5077205;28;20205;-67
2022/09/20 01:55:10;;;;;;;0.97;0.97;;;9.10;99.90;;;;;;5070471;28;20199;-67
2022/09/20 01:58:23;;;;;;;0.87;0.87;;;9.00;99.90;;;;;;5079803;28;20228;-67
2022/09/20 02:01:05;;;;;;;1.00;1.00;;;9.00;99.90;;;;;;5076686;28;20200;-66
2022/09/20 02:04:25;;;;;;;1.23;0.90;;;8.90;99.90;;;;;;5086337;28;20179;-68
2022/09/20 02:07:07;;;;;;;1.10;1.00;;;8.90;99.90;;;;;;5042417;28;20260;-66
2022/09/20 02:09:53;;;;;;;0.90;0.90;;;8.90;99.90;;;;;;5057230;28;20204;-67
2022/09/20 02:12:48;;;;;;;0.90;0.90;;;8.80;99.90;;;;;;5063025;28;20327;-68
2022/09/20 02:15:35;;;;;;;1.00;0.90;;;8.80;99.90;;;;;;5049550;28;20267;-68
2022/09/20 02:18:12;;;;;;;1.00;1.00;;;8.80;99.90;;;;;;5042897;28;20244;-66
2022/09/20 02:20:46;;;;;;;1.17;1.10;;;8.80;99.90;;;;;;5039547;28;20214;-66
2022/09/20 02:23:30;;;;;;;1.00;1.00;;;8.90;99.90;;;;;;5044453;28;20247;-64
2022/09/20 02:26:15;;;;;;;1.00;0.90;;;8.80;99.90;;;;;;5044286;28;20204;-66
2022/09/20 02:28:55;;;;;;;0.90;0.90;;;8.80;99.90;;;;;;5037869;28;20216;-68
2022/09/20 02:31:37;;;;;;;1.73;0.87;;;8.90;99.90;;;;;;5040093;28;20228;-68
2022/09/20 02:34:47;;;;;;;1.30;1.20;;;8.80;99.90;;;;;;5047745;28;20208;-66
2022/09/20 02:37:49;;;;;;;1.20;1.00;;;8.90;99.90;;;;;;5030291;28;20600;-66
2022/09/20 02:40:26;;;;;;;1.10;1.07;;;8.80;99.90;;;;;;5085299;28;20365;-67
2022/09/20 02:43:01;;;;;;;1.10;1.00;;;8.90;99.90;;;;;;5078550;28;20203;-69
2022/09/20 02:45:35;;;;;;;1.10;1.00;;;8.90;99.90;;;;;;5084271;28;20202;-68
2022/09/20 02:48:04;;;;;;;0.93;0.93;;;8.80;99.90;;;;;;5085264;28;20226;-64
2022/09/20 02:50:40;;;;;;;0.70;0.70;;;8.90;99.90;;;;;;5085707;28;20667;-67
2022/09/20 02:53:20;;;;;;;0.97;0.97;;;8.90;99.90;;;;;;5090095;28;20782;-68
2022/09/20 02:55:53;;;;;;;1.03;1.03;;;8.90;99.90;;;;;;5095495;28;20286;-67
2022/09/20 02:58:38;;;;;;;0.90;0.90;;;8.80;99.90;;;;;;5088613;28;20768;-67
2022/09/20 03:01:13;;;;;;;1.03;1.03;;;8.90;99.90;;;;;;5084630;28;20295;-67
2022/09/20 03:03:50;;;;;;;0.83;0.83;;;8.80;99.90;;;;;;5088891;28;20207;-68
2022/09/20 03:06:27;;;;;;;0.90;0.90;;;8.80;99.90;;;;;;5089254;28;20266;-68
2022/09/20 03:09:07;;;;;;;1.17;1.10;;;8.90;99.90;;;;;;5088720;28;20227;-66
2022/09/20 03:11:44;;;;;;;1.07;1.07;;;8.80;99.90;;;;;;5086769;28;20281;-66
2022/09/20 03:14:21;;;;;;;0.80;0.80;;;8.90;99.90;;;;;;5091492;28;20699;-64
2022/09/20 03:17:01;;;;;;;0.90;0.90;;;8.90;99.90;;;;;;5096219;28;20198;-68
2022/09/20 03:19:39;;;;;;;1.93;1.00;;;8.80;99.90;;;;;;5086025;28;20195;-67
2022/09/20 03:22:22;;;;;;;0.80;0.80;;;8.70;99.90;;;;;;5089463;28;20297;-67
2022/09/20 03:25:02;;;;;;;0.87;0.77;;;8.60;99.90;;;;;;5081633;28;20199;-68
2022/09/20 03:27:37;;;;;;;0.90;0.90;;;8.50;99.90;;;;;;5069615;28;20218;-67
2022/09/20 03:30:24;;;;;;;1.00;1.00;;;8.50;99.90;;;;;;5082285;28;20207;-67
2022/09/20 03:33:01;;;;;;;0.77;0.77;;;8.40;99.90;;;;;;5085820;28;20205;-66
2022/09/20 03:35:45;;;;;;;0.97;0.97;;;8.30;99.90;;;;;;5073456;28;20220;-67
2022/09/20 03:38:29;;;;;;;1.07;0.97;;;8.30;99.90;;;;;;5083965;28;20229;-68
2022/09/20 03:41:22;;;;;;;1.10;1.10;;;8.50;99.90;;;;;;5085140;28;20226;-67
2022/09/20 03:44:04;;;;;;;1.00;1.00;;;8.40;99.90;;;;;;5075500;28;20419;-66
2022/09/20 03:46:40;;;;;;;0.90;0.90;;;8.40;99.90;;;;;;5075542;28;20200;-67
2022/09/20 03:49:40;;;;;;;1.00;1.00;;;8.40;99.90;;;;;;5081580;28;20211;-66
2022/09/20 03:52:18;;;;;;;1.47;1.40;;;8.30;99.90;;;;;;5083365;28;20226;-67
2022/09/20 03:55:16;;;;;;;1.30;1.20;;;8.30;99.90;;;;;;5084491;28;20547;-67
2022/09/20 03:57:58;;;;;;;1.20;1.10;;;8.30;99.90;;;;;;5079021;28;20248;-65
2022/09/20 04:00:37;;;;;;;1.50;1.40;;;8.20;99.90;;;;;;5084587;28;20199;-67
2022/09/20 04:03:21;;;;;;;1.70;1.60;;;8.20;99.90;;;;;;5085806;28;20207;-66
2022/09/20 04:06:00;;;;;;;1.60;1.50;;;8.20;99.90;;;;;;5074645;28;20203;-66
2022/09/20 04:08:43;;;;;;;1.20;1.20;;;8.10;99.90;;;;;;5073027;28;20237;-68
2022/09/20 04:11:20;;;;;;;1.30;1.20;;;8.10;99.90;;;;;;5079358;28;20211;-68
2022/09/20 04:13:54;;;;;;;1.40;1.30;;;8.10;99.90;;;;;;5086177;28;20499;-65
2022/09/20 04:16:32;;;;;;;1.30;1.30;;;8.10;99.90;;;;;;5083617;28;20290;-68
2022/09/20 04:19:08;;;;;;;1.50;1.40;;;8.10;99.90;;;;;;5083410;28;20192;-68
2022/09/20 04:21:43;;;;;;;1.13;1.13;;;8.10;99.90;;;;;;5079915;28;20540;-66
2022/09/20 04:24:16;;;;;;;1.00;1.00;;;8.20;99.90;;;;;;5083976;28;20206;-69
2022/09/20 04:26:49;;;;;;;1.13;1.10;;;8.10;99.90;;;;;;5080228;28;20213;-67
2022/09/20 04:29:30;;;;;;;0.90;0.90;;;8.20;99.90;;;;;;5083746;28;20223;-66
2022/09/20 04:32:04;;;;;;;1.20;1.10;;;8.10;99.90;;;;;;5062857;28;20302;-68
2022/09/20 04:37:24;;;;;;;0.93;0.93;;;8.10;99.90;;;;;;5044362;28;20222;-66
2022/09/20 04:39:59;;;;;;;0.87;0.87;;;8.10;99.90;;;;;;5078559;28;20596;-66
2022/09/20 04:42:53;;;;;;;0.90;0.90;;;8.10;99.90;;;;;;5080691;28;20300;-68
2022/09/20 04:45:55;;;;;;;0.90;0.90;;;8.10;99.90;;;;;;5080871;28;20643;-67
2022/09/20 04:49:20;;;;;;;0.93;0.83;;;8.20;99.90;;;;;;5067859;28;20232;-67
2022/09/20 04:52:28;;;;;;;1.07;0.93;;;8.20;99.90;;;;;;5020223;28;20207;-65
2022/09/20 04:55:34;;;;;;;1.00;1.00;;;8.10;99.90;;;;;;5029342;28;20207;-68
2022/09/20 04:58:34;;;;;;;0.90;0.90;;;8.00;99.90;;;;;;5073138;28;20234;-66
2022/09/20 05:01:34;;;;;;;0.90;0.90;;;8.00;99.90;;;;;;5076531;28;20659;-67
2022/09/20 05:04:39;;;;;;;0.80;0.80;;;8.10;99.90;;;;;;5053063;28;20227;-67
2022/09/20 05:07:41;;;;;;;1.17;1.00;;;8.10;99.90;;;;;;5076506;28;20233;-65
2022/09/20 05:10:42;;;;;;;1.10;1.10;;;8.10;99.90;;;;;;5057224;28;20299;-65
2022/09/20 05:13:30;;;;;;;0.97;0.97;;;8.10;99.90;;;;;;5079510;28;20203;-66
2022/09/20 05:16:01;;;;;;;1.20;1.10;;;8.10;99.90;;;;;;5068637;28;20205;-67
2022/09/20 05:19:07;;;;;;;0.90;0.80;;;8.10;99.90;;;;;;5060422;28;20260;-66
2022/09/20 05:21:47;;;;;;;1.00;1.00;;;8.10;99.90;;;;;;5049370;28;20651;-66
2022/09/20 05:24:28;;;;;;;1.03;1.03;;;8.10;99.90;;;;;;5061738;28;20206;-66
2022/09/20 05:27:12;;;;;;;1.10;1.10;;;8.20;99.90;;;;;;5060497;28;20271;-68
2022/09/20 05:29:51;;;;;;;1.20;1.10;;;8.10;99.90;;;;;;5058651;28;20317;-66
2022/09/20 05:32:23;;;;;;;0.97;0.97;;;8.10;99.90;;;;;;5062258;28;20283;-67
2022/09/20 05:34:58;;;;;;;1.07;0.93;;;8.20;99.90;;;;;;5065447;28;20230;-68
2022/09/20 05:37:39;;;;;;;1.20;1.20;;;8.20;99.90;;;;;;5083034;28;20301;-68
2022/09/20 05:40:18;;;;;;;1.07;0.93;;;8.30;99.90;;;;;;5084346;28;20286;-66
2022/09/20 05:42:52;;;;;;;1.57;0.97;;;8.40;99.90;;;;;;5074411;28;20203;-66
2022/09/20 05:45:49;;;;;;;0.80;0.80;;;8.40;99.90;;;;;;5072579;28;20191;-66
2022/09/20 05:48:24;;;;;;;1.10;1.03;;;8.30;99.90;;;;;;5075530;28;20715;-67
2022/09/20 05:50:58;;;;;;;0.87;0.87;;;8.30;99.90;;;;;;5080754;28;20213;-66
2022/09/20 05:54:07;;;;;;;1.10;1.00;;;8.20;99.90;;;;;;5079759;28;20283;-65
2022/09/20 05:56:41;;;;;;;1.00;1.00;;;8.20;99.90;;;;;;5073398;28;20205;-65
2022/09/20 05:59:22;;;;;;;0.80;0.80;;;8.10;99.90;;;;;;5073234;28;20253;-66
2022/09/20 06:02:19;;;;;;;1.07;1.07;;;8.10;99.90;;;;;;5070110;28;20765;-65
2022/09/20 06:04:56;;;;;;;1.00;1.00;;;8.30;99.90;;;;;;5070177;28;20195;-67
2022/09/20 06:07:34;;;;;;;1.60;1.27;;;8.30;99.90;;;;;;5084665;28;20226;-66
2022/09/20 06:10:21;;;;;;;1.40;1.30;;;8.50;99.90;;;;;;5072986;28;20223;-67
2022/09/20 06:12:55;;;;;;;1.00;1.00;;;8.60;99.90;;;;;;5063360;28;20573;-66
2022/09/20 06:15:27;;;;;;;1.10;1.10;;;8.60;99.90;;;;;;5082134;28;20203;-67
2022/09/20 06:18:07;;;;;;;1.23;1.00;;;8.60;99.90;;;;;;5081236;28;20223;-65
2022/09/20 06:20:43;;;;;;;1.03;1.00;;;8.70;99.90;;;;;;5067823;28;20194;-67
2022/09/20 06:23:10;;;;;;;0.90;0.90;;;8.70;99.90;;;;;;5085563;28;20207;-67
2022/09/20 06:25:44;;;;;;;1.10;1.10;;;8.70;99.90;;;;;;5086380;28;20565;-65
2022/09/20 06:28:16;;;;;;;0.80;0.80;;;8.80;99.90;;;;;;5083411;28;20313;-66
2022/09/20 06:30:47;;;;;;;0.77;0.77;;;8.90;99.90;;;;;;5077502;28;20226;-66
2022/09/20 06:33:17;;;;;;;0.80;0.80;;;9.00;99.90;;;;;;5058746;28;20214;-65
2022/09/20 06:35:48;;;;;;;0.90;0.90;;;9.00;99.90;;;;;;5058879;28;20196;-67
2022/09/20 06:41:27;;;;;;;0.83;0.83;;;9.00;99.90;;;;;;5055833;28;20214;-66
2022/09/20 06:43:57;;;;;;;3.20;1.30;;;9.10;99.90;;;;;;5064781;28;20199;-65
2022/09/20 06:46:25;;;;;;;0.87;0.87;;;9.30;99.90;;;;;;5062686;28;20268;-67
2022/09/20 06:48:54;;;;;;;1.17;1.10;;;9.30;99.90;;;;;;5060851;28;20231;-67
2022/09/20 06:51:21;;;;;;;1.53;1.03;;;9.50;99.90;;;;;;5062708;28;20721;-66
2022/09/20 06:53:49;;;;;;;0.80;0.80;;;9.60;99.90;;;;;;5055432;28;20819;-67
2022/09/20 06:56:18;;;;;;;0.90;0.90;;;9.70;99.90;;;;;;5064908;28;20239;-65
2022/09/20 06:58:45;;;;;;;1.00;1.00;;;9.80;99.90;;;;;;5062673;28;20319;-68
2022/09/20 07:01:13;;;;;;;1.20;1.10;;;9.90;99.90;;;;;;5054890;28;20692;-66
2022/09/20 07:03:40;;;;;;;0.93;0.93;;;9.90;99.90;;;;;;5054631;28;20282;-67
2022/09/20 07:06:09;;;;;;;0.80;0.80;;;9.90;99.90;;;;;;5060123;28;20204;-65
2022/09/20 07:08:36;;;;;;;1.00;1.00;;;9.90;99.90;;;;;;5058467;28;20270;-65
2022/09/20 07:11:04;;;;;;;1.00;1.00;;;9.90;99.90;;;;;;5064534;28;20281;-67
2022/09/20 07:13:31;;;;;;;1.13;0.83;;;10.00;99.90;;;;;;5057424;28;20218;-67
2022/09/20 07:16:02;;;;;;;0.80;0.80;;;10.10;99.90;;;;;;5062496;28;20756;-65
2022/09/20 07:18:29;;;;;;;1.00;1.00;;;10.20;99.90;;;;;;5064879;28;20227;-66
2022/09/20 07:20:57;;;;;;;1.33;1.10;;;10.30;99.90;;;;;;5058816;28;20204;-65
2022/09/20 07:23:26;;;;;;;1.17;1.17;;;10.50;99.90;;;;;;5056932;28;20232;-66
2022/09/20 07:25:53;;;;;;;1.00;1.00;;;10.70;99.90;;;;;;5056884;28;20658;-66
2022/09/20 07:28:20;;;;;;;0.80;0.80;;;11.00;99.90;;;;;;5063103;28;20251;-67
2022/09/20 07:30:48;;;;;;;1.23;1.13;;;11.10;99.90;;;;;;5054313;28;20226;-65
2022/09/20 07:33:20;;;;;;;0.87;0.87;;;11.20;99.90;;;;;;5069074;28;20332;-69
2022/09/20 07:35:47;;;;;;;0.83;0.83;;;11.30;99.90;;;;;;5060756;28;20223;-67
2022/09/20 07:38:15;;;;;;;1.20;1.10;;;11.40;99.90;;;;;;5060400;28;20220;-65
2022/09/20 07:40:45;;;;;;;1.20;1.10;;;11.50;99.90;;;;;;5073064;28;20203;-66
2022/09/20 07:43:12;;;;;;;0.97;0.97;;;11.60;99.90;;;;;;5080826;28;20211;-66
2022/09/20 07:45:39;;;;;;;1.20;1.10;;;11.80;99.90;;;;;;5081478;28;20577;-67
2022/09/20 07:48:08;;;;;;;0.90;0.90;;;12.00;99.90;;;;;;5066403;28;20689;-68
2022/09/20 07:50:36;;;;;;;1.23;0.83;;;12.10;99.90;;;;;;5074681;28;20218;-67
2022/09/20 07:53:03;;;;;;;0.90;0.90;;;12.30;99.90;;;;;;5076542;28;20200;-66
2022/09/20 07:55:30;;;;;;;0.90;0.90;;;12.40;99.90;;;;;;5077508;28;20203;-65
2022/09/20 07:57:59;;;;;;;0.90;0.90;;;12.50;99.90;;;;;;5067121;28;20310;-66
2022/09/20 08:00:26;;;;;;;1.07;1.07;;;12.60;99.90;;;;;;5077014;28;20197;-66
2022/09/20 08:02:59;;;;;;;1.20;1.10;;;12.70;99.90;;;;;;5077063;28;20736;-65
2022/09/20 08:05:26;;;;;;;1.27;1.20;;;12.90;99.90;;;;;;5078976;28;20202;-66
2022/09/20 08:07:54;;;;;;;1.43;1.33;;;13.00;99.90;;;;;;5078522;28;20218;-67
2022/09/20 08:10:21;;;;;;;1.50;1.40;;;13.20;99.90;;;;;;5076419;28;20230;-67
2022/09/20 08:12:49;;;;;;;1.43;1.33;;;13.30;99.90;;;;;;5077515;28;20290;-65
2022/09/20 08:15:17;;;;;;;1.40;1.30;;;13.20;99.90;;;;;;5068097;28;20203;-65
2022/09/20 08:17:48;;;;;;;1.03;1.03;;;13.20;99.90;;;;;;5070476;28;20223;-65
2022/09/20 08:20:15;;;;;;;1.47;1.37;;;13.10;99.90;;;;;;5071571;28;20290;-67
2022/09/20 08:22:42;;;;;;;1.20;1.20;;;13.10;99.90;;;;;;5071217;28;20212;-66
2022/09/20 08:25:09;;;;;;;1.70;1.60;;;13.10;99.90;;;;;;5070564;28;20212;-66
2022/09/20 08:27:36;;;;;;;1.43;1.33;;;13.30;99.90;;;;;;5064982;28;20224;-65
2022/09/20 08:30:05;;;;;;;1.30;1.20;;;13.40;99.90;;;;;;5058587;28;20278;-67
2022/09/20 08:32:33;;;;;;;1.63;1.43;;;13.60;99.90;;;;;;5057392;28;20211;-66
2022/09/20 08:35:00;;;;;;;1.10;1.10;;;13.80;99.90;;;;;;5054344;28;20204;-66
2022/09/20 08:37:27;;;;;;;1.00;1.00;;;13.90;99.90;;;;;;5059401;28;20232;-65
2022/09/20 08:39:54;;;;;;;1.23;1.20;;;14.00;99.90;;;;;;5057543;28;20200;-67
2022/09/20 08:42:28;;;;;;;2.83;1.10;;;14.20;99.90;;;;;;5062100;28;20203;-67
2022/09/20 08:44:59;;;;;;;1.10;1.00;;;14.40;99.90;;;;;;5057464;28;20653;-66
2022/09/20 08:47:28;;;;;;;0.83;0.83;;;14.60;99.90;;;;;;5053457;28;20727;-67
2022/09/20 08:49:59;;;;;;;1.23;1.00;;;14.80;99.90;;;;;;5060100;28;20219;-65
2022/09/20 08:52:30;;;;;;;1.40;1.30;;;14.80;99.90;;;;;;5053815;28;20198;-66
2022/09/20 08:54:58;;;;;;;1.10;1.10;;;14.80;99.90;;;;;;5065977;28;20209;-66
2022/09/20 08:57:30;;;;;;;0.90;0.90;;;14.90;99.90;;;;;;5063375;28;20230;-67
2022/09/20 08:59:58;;;;;;;1.27;1.20;;;15.00;99.90;;;;;;5056225;28;20666;-66
2022/09/20 09:02:25;;;;;;;1.10;1.10;;;15.00;99.90;;;;;;5059003;28;20232;-64
2022/09/20 09:04:52;;;;;;;0.90;0.90;;;15.30;99.90;;;;;;5059699;28;20294;-67
2022/09/20 09:07:23;;;;;;;1.27;1.10;;;15.30;99.90;;;;;;5051028;28;20226;-64
2022/09/20 09:09:52;;;;;;;1.00;1.00;;;15.20;99.90;;;;;;5073269;28;20211;-65
2022/09/20 09:12:23;;;;;;;0.93;0.93;;;15.20;99.90;;;;;;5065741;28;20204;-66
2022/09/20 09:14:53;;;;;;;1.10;1.10;;;15.00;99.90;;;;;;5067705;28;20436;-65
2022/09/20 09:17:24;;;;;;;1.30;1.20;;;15.10;99.90;;;;;;5073037;28;20255;-67
2022/09/20 09:19:52;;;;;;;1.73;1.20;;;15.00;99.90;;;;;;5064615;28;20192;-68
2022/09/20 09:22:25;;;;;;;1.13;1.07;;;15.00;99.90;;;;;;5085603;28;20609;-65
2022/09/20 09:25:21;;;;;;;1.60;1.30;;;15.00;99.90;;;;;;5074965;28;20203;-65
2022/09/20 09:27:55;;;;;;;1.40;1.30;;;15.20;99.90;;;;;;5066464;28;20711;-65
2022/09/20 09:30:25;;;;;;;1.50;1.40;;;15.10;99.90;;;;;;5073844;28;20215;-65
2022/09/20 09:32:53;;;;;;;1.33;1.23;;;15.10;99.90;;;;;;5077508;28;20211;-66
2022/09/20 09:35:28;;;;;;;1.20;1.10;;;15.20;99.90;;;;;;5079415;28;20231;-67
2022/09/20 09:37:58;;;;;;;1.27;1.20;;;15.30;99.90;;;;;;5073820;28;20229;-65
2022/09/20 09:40:25;;;;;;;1.00;1.00;;;15.50;99.90;;;;;;5072822;28;20661;-66
2022/09/20 09:42:54;;;;;;;1.13;1.13;;;15.70;99.90;;;;;;5084568;28;20205;-65
2022/09/20 09:45:33;;;;;;;1.00;1.00;;;15.90;99.90;;;;;;5070783;28;20207;-66
2022/09/20 09:48:01;;;;;;;1.00;1.00;;;16.10;99.90;;;;;;5079932;28;21048;-66
2022/09/20 09:50:30;;;;;;;1.20;1.10;;;16.10;99.90;;;;;;5086730;28;20216;-66
2022/09/20 09:53:01;;;;;;;1.17;1.10;;;16.10;99.90;;;;;;5094083;28;20238;-66
2022/09/20 09:55:50;;;;;;;1.20;1.20;;;16.10;99.90;;;;;;5074891;28;20208;-65
2022/09/20 09:58:27;;;;;;;1.00;1.00;;;16.10;99.90;;;;;;5083978;28;20229;-66
2022/09/20 10:00:56;;;;;;;1.27;1.17;;;16.20;99.90;;;;;;5071955;28;20212;-66
2022/09/20 10:03:43;;;;;;;1.17;1.10;;;16.10;99.90;;;;;;5078402;28;20219;-65
2022/09/20 10:06:18;;;;;;;1.07;0.97;;;16.20;99.90;;;;;;5074110;28;20654;-66
2022/09/20 10:08:58;;;;;;;1.20;1.10;;;16.30;99.90;;;;;;5075654;28;20236;-66
2022/09/20 10:11:36;;;;;;;1.50;1.17;;;16.30;99.90;;;;;;5061356;28;20207;-65
2022/09/20 10:14:15;;;;;;;1.40;1.30;;;16.40;99.90;;;;;;5075081;28;20571;-66
2022/09/20 10:16:59;;;;;;;1.30;1.20;;;16.70;99.90;;;;;;5073077;28;20200;-65
2022/09/20 10:20:02;;;;;;;1.30;1.20;;;16.80;99.90;;;;;;5078584;28;20201;-68
2022/09/20 10:22:43;;;;;;;0.90;0.90;;;17.00;99.90;;;;;;5087930;28;20282;-66
2022/09/20 10:25:25;;;;;;;1.20;1.10;;;17.20;99.90;;;;;;5080491;28;20199;-66
2022/09/20 10:28:07;;;;;;;1.00;1.00;;;17.30;99.90;;;;;;5060225;28;20216;-67
2022/09/20 10:30:47;;;;;;;1.30;1.20;;;17.20;99.90;;;;;;5065754;28;20273;-66
2022/09/20 10:33:22;;;;;;;1.30;1.20;;;17.40;99.90;;;;;;5066427;28;20231;-66
2022/09/20 10:35:59;;;;;;;0.90;0.90;;;17.70;99.90;;;;;;5068870;28;20218;-66
2022/09/20 10:38:32;;;;;;;0.80;0.80;;;18.00;99.90;;;;;;5062956;28;20538;-65
2022/09/20 10:44:27;;;;;;;0.97;0.93;;;18.10;99.90;;;;;;5065588;28;20600;-67
2022/09/20 10:47:01;;;;;;;0.70;0.70;;;18.10;99.90;;;;;;5091094;28;20204;-66
2022/09/20 10:49:35;;;;;;;1.10;1.00;;;18.20;99.90;;;;;;5075830;28;20199;-65
2022/09/20 10:52:28;;;;;;;1.00;1.00;;;18.30;99.90;;;;;;5084107;28;20245;-65
2022/09/20 10:55:25;;;;;;;0.80;0.80;;;18.10;99.90;;;;;;5084107;28;20204;-66
2022/09/20 10:58:19;;;;;;;0.77;0.63;;;18.00;99.90;;;;;;5087825;28;20230;-66
2022/09/20 11:00:53;;;;;;;0.83;0.83;;;17.50;99.90;;;;;;5064681;28;20207;-67
2022/09/20 11:03:39;;;;;;;0.80;0.80;;;17.40;99.90;;;;;;5070803;28;20224;-67
2022/09/20 11:06:17;;;;;;;0.73;0.73;;;17.40;99.90;;;;;;5064775;28;20256;-66
2022/09/20 11:08:50;;;;;;;0.67;0.67;;;17.30;99.90;;;;;;5080736;28;20254;-66
2022/09/20 11:11:21;;;;;;;1.03;0.93;;;17.00;99.90;;;;;;5070436;28;20223;-66
2022/09/20 11:13:58;;;;;;;0.93;0.90;;;16.80;99.90;;;;;;5071542;28;20214;-66
2022/09/20 11:16:32;;;;;;;1.13;1.03;;;16.60;99.90;;;;;;5065969;28;20296;-67
2022/09/20 11:19:04;;;;;;;1.00;0.87;;;16.60;99.90;;;;;;5069040;28;20224;-65
2022/09/20 11:21:36;;;;;;;1.27;0.90;;;16.40;99.90;;;;;;5068832;28;20191;-68
2022/09/20 11:24:10;;;;;;;0.70;0.70;;;16.30;99.90;;;;;;5055361;28;20254;-65
2022/09/20 11:26:42;;;;;;;0.80;0.80;;;16.40;99.90;;;;;;5054137;28;20200;-68
2022/09/20 11:29:15;;;;;;;0.80;0.80;;;16.30;99.90;;;;;;5057008;28;20207;-66
2022/09/20 11:31:45;;;;;;;1.00;1.00;;;16.20;99.90;;;;;;5059392;28;20216;-65
2022/09/20 11:34:19;;;;;;;0.80;0.80;;;16.20;99.90;;;;;;5059162;28;20218;-66
2022/09/20 11:36:53;;;;;;;1.03;0.93;;;16.30;99.90;;;;;;5056509;28;20200;-67
2022/09/20 11:39:26;;;;;;;0.77;0.60;;;16.40;99.90;;;;;;5069262;28;20200;-65
2022/09/20 11:41:55;;;;;;;0.77;0.77;;;16.50;99.90;;;;;;5057698;28;20213;-67
2022/09/20 11:44:24;;;;;;;0.80;0.80;;;16.40;99.90;;;;;;5060701;28;20589;-65
2022/09/20 11:46:55;;;;;;;0.80;0.80;;;16.50;99.90;;;;;;5057884;28;20290;-66
2022/09/20 11:49:25;;;;;;;0.60;0.60;;;16.50;99.90;;;;;;5059307;28;20274;-66
2022/09/20 11:52:27;;;;;;;0.83;0.83;;;16.60;99.90;;;;;;5060176;28;20247;-66
2022/09/20 11:55:29;;;;;;;1.00;0.80;;;16.60;99.90;;;;;;5060142;28;20448;-67
2022/09/20 11:58:05;;;;;;;0.90;0.90;;;16.60;99.90;;;;;;5061950;28;20759;-65
2022/09/20 12:00:36;;;;;;;0.90;0.90;;;16.70;99.90;;;;;;5066281;28;20200;-66
2022/09/20 12:03:07;;;;;;;1.20;0.90;;;16.70;99.90;;;;;;5057844;28;20211;-66
2022/09/20 12:05:37;;;;;;;0.70;0.70;;;16.70;99.90;;;;;;5056205;28;20227;-66
2022/09/20 12:08:07;;;;;;;0.80;0.80;;;17.10;99.90;;;;;;5058714;28;20227;-65
2022/09/20 12:10:37;;;;;;;0.80;0.80;;;17.50;99.90;;;;;;5063615;28;20226;-65
2022/09/20 12:13:06;;;;;;;0.67;0.67;;;17.80;99.90;;;;;;5054081;28;20667;-67
2022/09/20 12:15:38;;;;;;;0.50;0.50;;;17.90;99.90;;;;;;5060494;28;20245;-67
2022/09/20 12:18:14;;;;;;;0.80;0.80;;;18.00;99.90;;;;;;5059929;28;20246;-66
2022/09/20 12:21:15;;;;;;;0.80;0.80;;;18.20;99.90;;;;;;5054815;28;20196;-66
2022/09/20 12:24:18;;;;;;;0.40;0.40;;;18.40;99.90;;;;;;5052900;28;20207;-66
2022/09/20 12:26:46;;;;;;;0.40;0.40;;;18.20;99.90;;;;;;5064111;28;20206;-66
2022/09/20 12:29:53;;;;;;;0.60;0.60;;;18.30;99.90;;;;;;5076483;28;20325;-66
2022/09/20 12:32:59;;;;;;;0.50;0.50;;;18.30;99.90;;;;;;5040658;28;20228;-65
2022/09/20 12:36:16;;;;;;;0.50;0.50;;;18.30;99.90;;;;;;5072219;28;20199;-65
2022/09/20 12:41:19;;;;;;;0.60;0.60;;;18.10;99.90;;;;;;5022029;28;20697;-64
2022/09/20 12:44:01;;;;;;;0.45;0.45;;;18.10;99.90;;;;;;5026330;28;20202;-65
2022/09/20 12:46:40;;;;;;;0.53;0.53;;;18.00;99.90;;;;;;5031407;28;20202;-63
2022/09/20 12:52:55;;;;;;;0.83;0.60;;;17.90;99.90;;;;;;5031334;28;20375;-65
2022/09/20 12:55:45;;;;;;;0.30;0.30;;;17.60;99.90;;;;;;5033009;28;20213;-64
2022/09/20 12:58:44;;;;;;;0.50;0.50;;;17.60;99.90;;;;;;5028739;28;20209;-64
2022/09/20 13:01:28;;;;;;;0.57;0.57;;;17.60;99.90;;;;;;5036847;28;20214;-64
2022/09/20 13:04:33;;;;;;;0.60;0.60;;;17.50;99.90;;;;;;5022300;28;20676;-63
2022/09/20 13:07:38;;;;;;;0.67;0.67;;;17.60;99.90;;;;;;5044065;28;20211;-63
2022/09/20 13:10:22;;;;;;;0.40;0.40;;;17.50;99.90;;;;;;5038417;28;20716;-63
2022/09/20 13:12:57;;;;;;;0.43;0.43;;;17.50;99.90;;;;;;5049170;28;20192;-63
2022/09/20 13:15:26;;;;;;;0.70;0.70;;;17.40;99.90;;;;;;5045757;28;20228;-63
2022/09/20 13:17:56;;;;;;;1.23;0.70;;;17.30;99.90;;;;;;5048987;28;20196;-64
2022/09/20 13:20:25;;;;;;;0.60;0.60;;;17.30;99.90;;;;;;5037734;28;20227;-64
2022/09/20 13:22:53;;;;;;;0.60;0.60;;;17.30;99.90;;;;;;5044523;28;20211;-65
2022/09/20 13:25:23;;;;;;;0.90;0.80;;;17.30;99.90;;;;;;5043933;28;20292;-65
2022/09/20 13:27:57;;;;;;;0.90;0.90;;;17.20;99.90;;;;;;5039123;28;20211;-63
2022/09/20 13:30:25;;;;;;;0.83;0.83;;;17.20;99.90;;;;;;5044009;28;20251;-63
2022/09/20 13:32:53;;;;;;;0.60;0.60;;;17.20;99.90;;;;;;5044943;28;20197;-63
2022/09/20 13:35:22;;;;;;;0.50;0.50;;;17.40;99.90;;;;;;5043532;28;20216;-63
2022/09/20 13:37:55;;;;;;;0.60;0.60;;;17.50;99.90;;;;;;5046227;28;20207;-64
2022/09/20 13:40:29;;;;;;;0.93;0.93;;;17.40;99.90;;;;;;5043979;28;20240;-64
2022/09/20 13:42:58;;;;;;;0.73;0.73;;;17.30;99.90;;;;;;5044159;28;20204;-64
2022/09/20 13:45:27;;;;;;;0.80;0.60;;;17.20;99.90;;;;;;5039804;28;20286;-64
2022/09/20 13:47:56;;;;;;;1.03;0.80;;;17.50;99.90;;;;;;5044312;28;20289;-63
2022/09/20 13:50:29;;;;;;;0.50;0.50;;;17.80;99.90;;;;;;5042972;28;20232;-64
2022/09/20 13:52:58;;;;;;;0.67;0.67;;;17.90;99.90;;;;;;5044974;28;20216;-64
2022/09/20 13:55:31;;;;;;;0.67;0.67;;;18.20;99.90;;;;;;5043530;28;20207;-66
2022/09/20 13:58:02;;;;;;;0.50;0.50;;;18.30;99.90;;;;;;5047819;28;20204;-63